Time,TemperatureF,DewpointF,PressureIn,WindDirection,WindDirectionDegrees,WindSpeedMPH,WindSpeedGustMPH,Humidity,HourlyPrecipIn,Conditions,Clouds,dailyrainin,SoftwareType,DateUTC
2013-07-03 00:00:00,73.9,73.3,30.12,South,180,0.0,-999.0,98,-99.99,,,0.00,Acu-Link.com,2013-07-03 04:00:00,
2013-07-03 00:15:00,73.8,73.2,30.12,NNW,337,0.0,-999.0,98,-99.99,,,0.00,Acu-Link.com,2013-07-03 04:15:00,
2013-07-03 00:31:00,73.6,73.0,30.12,South,180,0.0,-999.0,98,-99.99,,,0.00,Acu-Link.com,2013-07-03 04:31:00,
2013-07-03 00:46:00,73.4,72.8,30.12,South,180,0.0,-999.0,98,-99.99,,,0.00,Acu-Link.com,2013-07-03 04:46:00,
2013-07-03 01:01:00,73.4,72.8,30.11,SSW,202,0.0,-999.0,98,-99.99,,,0.00,Acu-Link.com,2013-07-03 05:01:00,
2013-07-03 01:16:00,73.0,72.4,30.11,SSW,202,0.0,-999.0,98,-99.99,,,0.00,Acu-Link.com,2013-07-03 05:16:00,
2013-07-03 01:46:00,72.3,71.7,30.12,SSW,202,0.0,-999.0,98,-99.99,,,0.00,Acu-Link.com,2013-07-03 05:46:00,
2013-07-03 02:16:00,72.1,71.5,30.12,SSE,157,0.0,-999.0,98,-99.99,,,0.00,Acu-Link.com,2013-07-03 06:16:00,
2013-07-03 02:31:00,72.0,71.4,30.12,ESE,112,0.0,-999.0,98,-99.99,,,0.00,Acu-Link.com,2013-07-03 06:31:00,
2013-07-03 03:02:00,71.4,70.8,30.12,NNW,337,0.0,-999.0,98,-99.99,,,0.00,Acu-Link.com,2013-07-03 07:02:00,
2013-07-03 03:17:00,71.2,70.6,30.12,SSE,157,0.0,-999.0,98,-99.99,,,0.00,Acu-Link.com,2013-07-03 07:17:00,
2013-07-03 03:32:00,71.2,70.6,30.11,East,90,0.0,-999.0,98,-99.99,,,0.00,Acu-Link.com,2013-07-03 07:32:00,
2013-07-03 03:47:00,71.2,70.6,30.12,SE,135,0.0,-999.0,98,-99.99,,,0.00,Acu-Link.com,2013-07-03 07:47:00,
2013-07-03 04:03:00,71.2,70.6,30.11,SSE,157,1.7,-999.0,98,-99.99,,,0.00,Acu-Link.com,2013-07-03 08:03:00,
2013-07-03 04:18:00,71.2,70.6,30.11,North,0,0.0,-999.0,98,-99.99,,,0.00,Acu-Link.com,2013-07-03 08:18:00,
2013-07-03 04:33:00,71.2,70.6,30.11,WNW,292,0.0,-999.0,98,-99.99,,,0.00,Acu-Link.com,2013-07-03 08:33:00,
2013-07-03 04:48:00,71.1,70.5,30.12,NNW,337,0.0,-999.0,98,-99.99,,,0.00,Acu-Link.com,2013-07-03 08:48:00,
2013-07-03 05:03:00,70.9,70.3,30.12,SSE,157,0.0,-999.0,98,-99.99,,,0.00,Acu-Link.com,2013-07-03 09:03:00,
2013-07-03 05:18:00,70.7,70.1,30.12,SSE,157,0.0,-999.0,98,-99.99,,,0.00,Acu-Link.com,2013-07-03 09:18:00,
2013-07-03 05:34:00,70.5,69.9,30.12,WNW,292,0.0,-999.0,98,-99.99,,,0.00,Acu-Link.com,2013-07-03 09:34:00,
2013-07-03 05:49:00,70.7,70.1,30.12,SW,225,0.0,-999.0,98,-99.99,,,0.00,Acu-Link.com,2013-07-03 09:49:00,
2013-07-03 06:04:00,71.1,70.5,30.13,SSE,157,0.0,-999.0,98,-99.99,,,0.00,Acu-Link.com,2013-07-03 10:04:00,
2013-07-03 06:19:00,71.2,70.6,30.14,SSE,157,0.0,-999.0,98,-99.99,,,0.00,Acu-Link.com,2013-07-03 10:19:00,
2013-07-03 06:34:00,72.3,71.7,30.14,ESE,112,0.0,-999.0,98,-99.99,,,0.00,Acu-Link.com,2013-07-03 10:34:00,
2013-07-03 06:49:00,72.9,72.3,30.14,South,180,1.1,-999.0,98,-99.99,,,0.00,Acu-Link.com,2013-07-03 10:49:00,
2013-07-03 07:20:00,74.5,73.9,30.15,South,180,1.7,-999.0,98,-99.99,,,0.00,Acu-Link.com,2013-07-03 11:20:00,
2013-07-03 07:35:00,74.8,74.2,30.15,NNE,22,0.0,-999.0,98,-99.99,,,0.00,Acu-Link.com,2013-07-03 11:35:00,
2013-07-03 07:50:00,75.2,74.6,30.15,SSE,157,1.7,-999.0,98,-99.99,,,0.00,Acu-Link.com,2013-07-03 11:50:00,
2013-07-03 08:20:00,75.9,75.3,30.16,SSE,157,2.2,-999.0,98,-99.99,,,0.00,Acu-Link.com,2013-07-03 12:20:00,
2013-07-03 08:35:00,77.9,76.0,30.15,SW,225,0.0,-999.0,94,-99.99,,,0.00,Acu-Link.com,2013-07-03 12:35:00,
2013-07-03 09:05:00,79.7,75.5,30.16,South,180,2.2,-999.0,87,-99.99,,,0.00,Acu-Link.com,2013-07-03 13:05:00,
2013-07-03 09:21:00,79.3,75.1,30.16,West,270,0.0,-999.0,87,-99.99,,,0.00,Acu-Link.com,2013-07-03 13:21:00,
2013-07-03 09:36:00,78.4,74.5,30.16,NNE,22,0.0,-999.0,88,-99.99,,,0.00,Acu-Link.com,2013-07-03 13:36:00,
2013-07-03 09:51:00,78.4,74.9,30.16,SSW,202,1.7,-999.0,89,-99.99,,,0.00,Acu-Link.com,2013-07-03 13:51:00,
2013-07-03 10:06:00,81.7,76.7,30.16,NW,315,0.0,-999.0,85,-99.99,,,0.00,Acu-Link.com,2013-07-03 14:06:00,
2013-07-03 10:21:00,80.4,75.5,30.16,South,180,0.0,-999.0,85,-99.99,,,0.00,Acu-Link.com,2013-07-03 14:21:00,
2013-07-03 10:36:00,82.4,76.7,30.16,WNW,292,0.0,-999.0,83,-99.99,,,0.00,Acu-Link.com,2013-07-03 14:36:00,
2013-07-03 10:52:00,84.4,76.4,30.15,SW,225,0.0,-999.0,77,-99.99,,,0.00,Acu-Link.com,2013-07-03 14:52:00,
2013-07-03 11:07:00,88.9,78.7,30.15,WNW,292,0.0,-999.0,72,-99.99,,,0.00,Acu-Link.com,2013-07-03 15:07:00,
2013-07-03 11:37:00,91.9,77.5,30.14,South,180,1.7,-999.0,63,-99.99,,,0.00,Acu-Link.com,2013-07-03 15:37:00,
2013-07-03 11:52:00,89.8,77.8,30.15,South,180,1.7,-999.0,68,-99.99,,,0.00,Acu-Link.com,2013-07-03 15:52:00,
2013-07-03 12:22:00,90.3,78.3,30.15,South,180,1.1,-999.0,68,-99.99,,,0.00,Acu-Link.com,2013-07-03 16:22:00,
2013-07-03 12:37:00,92.8,76.8,30.14,SW,225,2.2,-999.0,60,-99.99,,,0.00,Acu-Link.com,2013-07-03 16:37:00,
2013-07-03 12:52:00,92.7,78.2,30.14,SSW,202,4.7,-999.0,63,-99.99,,,0.00,Acu-Link.com,2013-07-03 16:52:00,
2013-07-03 13:23:00,93.7,78.2,30.13,South,180,2.7,-999.0,61,-99.99,,,0.00,Acu-Link.com,2013-07-03 17:23:00,
2013-07-03 13:38:00,90.5,78.5,30.13,NE,45,0.0,-999.0,68,-99.99,,,0.00,Acu-Link.com,2013-07-03 17:38:00,
2013-07-03 13:53:00,89.2,78.1,30.13,NNW,337,2.7,-999.0,70,-99.99,,,0.00,Acu-Link.com,2013-07-03 17:53:00,
2013-07-03 14:08:00,90.5,77.6,30.13,SW,225,0.0,-999.0,66,-99.99,,,0.00,Acu-Link.com,2013-07-03 18:08:00,
2013-07-03 14:23:00,87.6,77.4,30.13,South,180,3.7,-999.0,72,-99.99,,,0.00,Acu-Link.com,2013-07-03 18:23:00,
2013-07-03 15:08:00,91.2,78.7,30.12,SSW,202,2.2,-999.0,67,-99.99,,,0.00,Acu-Link.com,2013-07-03 19:08:00,
2013-07-03 15:24:00,87.1,76.9,30.12,South,180,2.7,-999.0,72,-99.99,,,0.00,Acu-Link.com,2013-07-03 19:24:00,
2013-07-03 15:54:00,84.4,77.2,30.10,SSE,157,2.7,-999.0,79,-99.99,,,0.00,Acu-Link.com,2013-07-03 19:54:00,
2013-07-03 16:09:00,85.1,77.1,30.10,SSW,202,3.2,-999.0,77,-99.99,,,0.00,Acu-Link.com,2013-07-03 20:09:00,
2013-07-03 16:24:00,85.1,77.4,30.10,SSE,157,2.2,-999.0,78,-99.99,,,0.00,Acu-Link.com,2013-07-03 20:24:00,
2013-07-03 16:39:00,85.8,77.7,30.09,West,270,0.0,-999.0,77,-99.99,,,0.00,Acu-Link.com,2013-07-03 20:39:00,
2013-07-03 16:54:00,86.4,77.9,30.10,South,180,2.2,-999.0,76,-99.99,,,0.00,Acu-Link.com,2013-07-03 20:54:00,
2013-07-03 17:09:00,84.0,76.8,30.10,West,270,0.0,-999.0,79,-99.99,,,0.00,Acu-Link.com,2013-07-03 21:09:00,
2013-07-03 17:24:00,83.3,76.5,30.09,East,90,0.0,-999.0,80,-99.99,,,0.00,Acu-Link.com,2013-07-03 21:24:00,
2013-07-03 17:39:00,82.9,76.5,30.09,SE,135,1.1,-999.0,81,-99.99,,,0.00,Acu-Link.com,2013-07-03 21:39:00,
2013-07-03 17:55:00,83.7,77.2,30.10,SW,225,0.0,-999.0,81,-99.99,,,0.00,Acu-Link.com,2013-07-03 21:55:00,
2013-07-03 18:10:00,82.4,76.3,30.10,SE,135,2.2,-999.0,82,-99.99,,,0.00,Acu-Link.com,2013-07-03 22:10:00,
2013-07-03 18:25:00,82.8,76.4,30.10,SSW,202,0.0,-999.0,81,-99.99,,,0.00,Acu-Link.com,2013-07-03 22:25:00,
2013-07-03 18:40:00,82.2,76.5,30.09,NW,315,0.0,-999.0,83,-99.99,,,0.00,Acu-Link.com,2013-07-03 22:40:00,
2013-07-03 18:55:00,81.5,76.5,30.08,SW,225,1.7,-999.0,85,-99.99,,,0.00,Acu-Link.com,2013-07-03 22:55:00,
2013-07-03 19:10:00,81.0,76.8,30.09,West,270,0.0,-999.0,87,-99.99,,,0.00,Acu-Link.com,2013-07-03 23:10:00,
2013-07-03 19:25:00,80.1,76.6,30.09,SSW,202,1.1,-999.0,89,-99.99,,,0.00,Acu-Link.com,2013-07-03 23:25:00,
2013-07-03 19:40:00,79.9,76.4,30.10,SSW,202,0.0,-999.0,89,-99.99,,,0.00,Acu-Link.com,2013-07-03 23:40:00,
2013-07-03 20:26:00,78.4,75.9,30.11,South,180,0.0,-999.0,92,-99.99,,,0.00,Acu-Link.com,2013-07-04 00:26:00,
2013-07-03 20:56:00,77.0,76.4,30.12,SE,135,0.0,-999.0,98,-99.99,,,0.00,Acu-Link.com,2013-07-04 00:56:00,
2013-07-03 21:11:00,76.3,75.7,30.12,South,180,0.0,-999.0,98,-99.99,,,0.00,Acu-Link.com,2013-07-04 01:11:00,
2013-07-03 21:26:00,75.9,75.3,30.13,SSE,157,0.0,-999.0,98,-99.99,,,0.00,Acu-Link.com,2013-07-04 01:26:00,
2013-07-03 21:41:00,75.4,74.8,30.13,SSW,202,0.0,-999.0,98,-99.99,,,0.00,Acu-Link.com,2013-07-04 01:41:00,
2013-07-03 21:56:00,75.0,74.4,30.14,South,180,0.0,-999.0,98,-99.99,,,0.00,Acu-Link.com,2013-07-04 01:56:00,
2013-07-03 22:27:00,74.3,73.7,30.14,South,180,0.0,-999.0,98,-99.99,,,0.00,Acu-Link.com,2013-07-04 02:27:00,
2013-07-03 22:42:00,74.1,73.5,30.14,NW,315,0.0,-999.0,98,-99.99,,,0.00,Acu-Link.com,2013-07-04 02:42:00,
2013-07-03 22:57:00,73.9,73.3,30.15,South,180,0.0,-999.0,98,-99.99,,,0.00,Acu-Link.com,2013-07-04 02:57:00,
2013-07-03 23:27:00,73.9,73.3,30.14,SSE,157,1.1,-999.0,98,-99.99,,,0.00,Acu-Link.com,2013-07-04 03:27:00,
2013-07-03 23:42:00,73.6,73.0,30.14,SW,225,0.0,-999.0,98,-99.99,,,0.00,Acu-Link.com,2013-07-04 03:42:00,
2013-07-03 23:57:00,73.4,72.8,30.14,WNW,292,0.0,-999.0,98,-99.99,,,0.00,Acu-Link.com,2013-07-04 03:57:00,